Time;durP1;ratioP1;P1;durP2;ratioP2;P2;SDS_P1;SDS_P2;PMS_P1;PMS_P2;Temp;Humidity;BMP_temperature;BMP_pressure;BME280_temperature;BME280_humidity;BME280_pressure;Samples;Min_cycle;Max_cycle;Signal;HPM_P1;HPM_P2
2022/04/23 00:02:10;;;;;;;17.60;12.02;;;;;;;7.20;100.00;95377.97;5023910;28;20413;-72
2022/04/23 00:04:36;;;;;;;16.52;10.73;;;;;;;7.15;100.00;95389.38;5022775;28;20075;-70
2022/04/23 00:07:04;;;;;;;19.65;11.98;;;;;;;7.09;100.00;95376.31;5020622;28;20111;-71
2022/04/23 00:09:29;;;;;;;16.98;10.55;;;;;;;7.05;100.00;95383.16;5023200;28;20339;-70
2022/04/23 00:11:58;;;;;;;16.13;11.88;;;;;;;7.08;100.00;95386.13;5022856;28;20583;-72
2022/04/23 00:14:24;;;;;;;18.40;12.52;;;;;;;7.11;100.00;95384.81;5023290;28;20502;-70
2022/04/23 00:16:50;;;;;;;19.65;11.68;;;;;;;7.10;100.00;95378.69;5021638;28;20447;-72
2022/04/23 00:19:19;;;;;;;16.85;11.82;;;;;;;7.11;100.00;95374.97;5022059;28;20037;-70
2022/04/23 00:21:45;;;;;;;18.10;12.35;;;;;;;7.07;100.00;95381.03;5020951;28;20040;-70
2022/04/23 00:24:11;;;;;;;20.58;11.80;;;;;;;6.99;100.00;95369.81;5023252;28;20025;-70
2022/04/23 00:26:37;;;;;;;17.08;11.43;;;;;;;6.94;100.00;95369.78;5023565;28;20044;-70
2022/04/23 00:29:02;;;;;;;17.85;12.65;;;;;;;6.94;100.00;95375.09;5021054;28;20041;-72
2022/04/23 00:31:28;;;;;;;20.02;12.98;;;;;;;6.95;100.00;95363.41;5021636;28;20567;-71
2022/04/23 00:33:54;;;;;;;17.13;9.73;;;;;;;6.93;100.00;95365.53;5025367;28;20045;-70
2022/04/23 00:36:20;;;;;;;17.52;11.63;;;;;;;6.91;100.00;95370.25;5020128;28;20451;-70
2022/04/23 00:38:49;;;;;;;16.95;11.77;;;;;;;6.90;100.00;95367.88;5025883;28;20037;-71
2022/04/23 00:44:00;;;;;;;18.00;12.25;;;;;;;6.84;100.00;95374.19;5023320;28;20419;-70
2022/04/23 00:46:26;;;;;;;19.83;12.93;;;;;;;6.84;100.00;95369.66;5021408;28;20041;-70
2022/04/23 00:48:51;;;;;;;20.25;12.77;;;;;;;6.82;100.00;95365.66;5021416;28;20041;-71
2022/04/23 00:51:17;;;;;;;13.18;8.50;;;;;;;6.77;100.00;95366.44;5019442;28;20112;-70
2022/04/23 00:53:46;;;;;;;18.08;11.35;;;;;;;6.83;100.00;95364.59;5024977;28;20037;-72
2022/04/23 00:56:13;;;;;;;12.35;8.25;;;;;;;6.80;100.00;95363.25;5021808;28;20041;-70
2022/04/23 00:58:39;;;;;;;18.25;12.38;;;;;;;6.80;100.00;95373.09;5021034;28;20364;-71
2022/04/23 01:01:05;;;;;;;18.33;12.38;;;;;;;6.74;100.00;95366.91;5021984;28;20484;-70
2022/04/23 01:03:32;;;;;;;18.40;12.07;;;;;;;6.74;100.00;95369.56;5023130;28;20044;-70
2022/04/23 01:05:58;;;;;;;15.95;9.57;;;;;;;6.69;100.00;95362.34;5020644;28;20156;-71
2022/04/23 01:08:25;;;;;;;19.08;11.85;;;;;;;6.72;100.00;95360.25;5026301;28;20896;-70
2022/04/23 01:10:52;;;;;;;14.75;9.55;;;;;;;6.75;100.00;95365.84;5022735;28;20372;-70
2022/04/23 01:13:17;;;;;;;18.40;12.23;;;;;;;6.64;100.00;95370.28;5021639;28;20514;-70
2022/04/23 01:16:07;;;;;;;16.33;11.18;;;;;;;6.56;100.00;95368.06;5019658;28;20033;-71
2022/04/23 01:18:34;;;;;;;17.10;11.82;;;;;;;6.59;100.00;95364.09;5023565;28;20033;-70
2022/04/23 01:21:04;;;;;;;15.73;10.52;;;;;;;6.56;100.00;95372.56;5020634;28;20496;-70
2022/04/23 01:23:30;;;;;;;18.13;11.20;;;;;;;6.51;100.00;95348.59;5021797;28;20075;-71
2022/04/23 01:25:57;;;;;;;20.85;12.57;;;;;;;6.59;100.00;95364.88;5023152;28;20412;-71
2022/04/23 01:28:24;;;;;;;14.98;10.45;;;;;;;6.55;100.00;95358.47;5020485;28;20056;-70
2022/04/23 01:30:51;;;;;;;17.52;10.77;;;;;;;6.53;100.00;95354.44;5023718;28;20038;-70
2022/04/23 01:33:17;;;;;;;15.32;10.50;;;;;;;6.55;100.00;95357.69;5024413;28;20072;-71
2022/04/23 01:35:43;;;;;;;17.02;10.95;;;;;;;6.51;100.00;95354.69;5020935;28;20369;-70
2022/04/23 01:38:09;;;;;;;19.77;12.18;;;;;;;6.53;100.00;95363.22;5020880;28;20083;-70
2022/04/23 01:40:35;;;;;;;18.10;11.18;;;;;;;6.52;100.00;95355.50;5020370;28;20033;-70
2022/04/23 01:43:00;;;;;;;18.65;11.38;;;;;;;6.56;100.00;95335.34;5020492;28;20045;-71
2022/04/23 01:45:26;;;;;;;18.75;12.68;;;;;;;6.52;100.00;95355.50;5024666;28;20036;-70
2022/04/23 01:47:52;;;;;;;17.80;10.23;;;;;;;6.50;100.00;95354.97;5020355;28;20115;-70
2022/04/23 01:50:17;;;;;;;16.67;11.45;;;;;;;6.51;100.00;95345.94;5019146;28;20033;-70
2022/04/23 01:52:43;;;;;;;17.02;12.05;;;;;;;6.48;100.00;95349.09;5020909;28;20127;-70
2022/04/23 01:55:08;;;;;;;18.83;11.07;;;;;;;6.47;100.00;95348.28;5020399;28;20048;-71
2022/04/23 01:57:34;;;;;;;17.48;11.90;;;;;;;6.46;100.00;95354.66;5025939;28;20175;-70
2022/04/23 02:00:00;;;;;;;18.08;10.07;;;;;;;6.40;100.00;95366.28;5024088;28;20048;-70
2022/04/23 02:02:25;;;;;;;20.52;11.02;;;;;;;6.36;100.00;95367.81;5026086;28;20135;-70
2022/04/23 02:04:51;;;;;;;15.60;9.48;;;;;;;6.32;100.00;95370.19;5026244;28;20048;-70
2022/04/23 02:07:16;;;;;;;18.27;10.43;;;;;;;6.32;100.00;95356.88;5024303;28;20426;-71
2022/04/23 02:09:41;;;;;;;16.25;11.55;;;;;;;6.36;100.00;95359.84;5024267;28;20047;-71
2022/04/23 02:12:07;;;;;;;14.05;9.23;;;;;;;6.34;100.00;95368.06;5024799;28;20041;-71
2022/04/23 02:14:33;;;;;;;16.27;7.60;;;;;;;6.28;100.00;95363.75;5023583;28;20042;-70
2022/04/23 02:16:58;;;;;;;16.95;10.98;;;;;;;6.27;100.00;95358.69;5024389;28;20068;-70
2022/04/23 02:19:24;;;;;;;20.77;11.52;;;;;;;6.24;100.00;95357.34;5024065;28;20120;-71
2022/04/23 02:21:50;;;;;;;16.63;10.40;;;;;;;6.20;100.00;95358.06;5025033;28;20245;-71
2022/04/23 02:24:16;;;;;;;20.73;12.52;;;;;;;6.21;100.00;95359.66;5033128;28;20044;-69
2022/04/23 02:26:41;;;;;;;17.45;12.35;;;;;;;6.25;100.00;95352.81;5025240;28;20025;-71
2022/04/23 02:29:07;;;;;;;17.13;10.77;;;;;;;6.25;100.00;95348.31;5021377;28;20041;-71
2022/04/23 02:31:32;;;;;;;15.40;10.45;;;;;;;6.24;100.00;95353.88;5023196;28;20037;-70
2022/04/23 02:33:58;;;;;;;17.08;10.70;;;;;;;6.24;100.00;95357.34;5026203;28;20077;-69
2022/04/23 02:36:23;;;;;;;17.60;12.02;;;;;;;6.24;100.00;95357.34;5023212;28;20156;-70
2022/04/23 02:38:51;;;;;;;14.60;9.25;;;;;;;6.21;100.00;95355.16;5023420;28;20140;-70
2022/04/23 02:41:17;;;;;;;17.75;11.25;;;;;;;6.22;100.00;95350.63;5021689;28;20523;-70
2022/04/23 02:43:43;;;;;;;19.27;11.57;;;;;;;6.18;100.00;95353.00;5026460;28;20151;-70
2022/04/23 02:46:09;;;;;;;18.65;12.30;;;;;;;6.19;100.00;95346.63;5023944;28;20488;-71
2022/04/23 02:48:35;;;;;;;16.55;11.13;;;;;;;6.20;100.00;95348.22;5025886;28;20456;-69
2022/04/23 02:51:01;;;;;;;16.92;10.75;;;;;;;6.17;100.00;95347.94;5022410;28;20034;-71
2022/04/23 02:53:28;;;;;;;20.77;12.25;;;;;;;6.16;100.00;95360.41;5025214;28;20106;-70
2022/04/23 02:55:57;;;;;;;20.70;11.95;;;;;;;6.16;100.00;95359.63;5024375;28;20476;-70
2022/04/23 02:58:26;;;;;;;19.00;12.65;;;;;;;6.13;100.00;95352.94;5026299;28;20874;-70
2022/04/23 03:00:53;;;;;;;19.40;11.50;;;;;;;6.13;100.00;95347.63;5024443;28;20528;-70
2022/04/23 03:03:19;;;;;;;17.73;11.57;;;;;;;6.18;100.00;95357.50;5022765;28;20427;-70
2022/04/23 03:05:44;;;;;;;12.95;8.73;;;;;;;6.23;100.00;95346.97;5023712;28;20317;-70
2022/04/23 03:08:12;;;;;;;17.17;11.98;;;;;;;6.23;100.00;95341.66;5019634;28;20025;-71
2022/04/23 03:10:39;;;;;;;17.67;12.48;;;;;;;6.21;100.00;95339.22;5024563;28;20042;-70
2022/04/23 03:13:07;;;;;;;19.88;12.15;;;;;;;6.22;100.00;95350.63;5022919;28;20060;-71
2022/04/23 03:15:34;;;;;;;12.05;7.82;;;;;;;6.24;100.00;95345.91;5052731;28;20438;-70
2022/04/23 03:18:10;;;;;;;19.13;11.30;;;;;;;6.25;100.00;95348.31;5025838;28;20510;-72
2022/04/23 03:20:37;;;;;;;14.82;9.27;;;;;;;6.29;100.00;95344.09;5022674;28;20330;-70
2022/04/23 03:23:04;;;;;;;14.50;10.23;;;;;;;6.27;100.00;95334.75;5024451;28;20037;-72
2022/04/23 03:25:32;;;;;;;19.25;12.63;;;;;;;6.26;100.00;95341.13;5021438;28;20063;-70
2022/04/23 03:27:59;;;;;;;20.75;12.40;;;;;;;6.29;100.00;95341.44;5024515;28;20037;-70
2022/04/23 03:30:25;;;;;;;17.63;12.25;;;;;;;6.29;100.00;95340.63;5020444;28;20021;-70
2022/04/23 03:32:50;;;;;;;18.83;10.63;;;;;;;6.34;100.00;95336.19;5024227;28;20044;-72
2022/04/23 03:35:16;;;;;;;17.55;11.48;;;;;;;6.35;100.00;95351.06;5024061;28;20046;-70
2022/04/23 03:37:42;;;;;;;17.10;10.80;;;;;;;6.37;100.00;95350.81;5022627;28;20433;-70
2022/04/23 03:40:09;;;;;;;15.80;10.23;;;;;;;6.36;100.00;95342.03;5038894;28;20064;-70
2022/04/23 03:42:35;;;;;;;17.67;10.93;;;;;;;6.35;100.00;95344.94;5026290;28;20487;-69
2022/04/23 03:45:04;;;;;;;14.57;9.05;;;;;;;6.33;100.00;95341.75;5023302;28;20042;-72
2022/04/23 03:47:31;;;;;;;15.48;10.20;;;;;;;6.37;100.00;95342.84;5030135;28;20144;-70
2022/04/23 03:49:57;;;;;;;15.55;10.20;;;;;;;6.35;100.00;95345.75;5023085;28;20107;-70
2022/04/23 03:52:22;;;;;;;18.40;10.98;;;;;;;6.51;100.00;95348.59;5023920;28;20570;-72
2022/04/23 03:54:48;;;;;;;19.27;11.73;;;;;;;6.53;100.00;95359.75;5025506;28;20103;-71
2022/04/23 03:57:13;;;;;;;17.48;11.52;;;;;;;6.55;100.00;95355.03;5024750;28;20041;-70
2022/04/23 03:59:39;;;;;;;19.60;11.68;;;;;;;6.56;100.00;95354.75;5022828;28;20044;-70
2022/04/23 04:02:05;;;;;;;17.52;11.15;;;;;;;6.50;100.00;95337.16;5019184;28;20060;-69
2022/04/23 04:04:32;;;;;;;16.73;8.57;;;;;;;6.53;100.00;95338.50;5025170;28;20049;-72
2022/04/23 04:06:59;;;;;;;15.95;10.55;;;;;;;6.54;100.00;95337.47;5022322;28;20469;-70
2022/04/23 04:09:26;;;;;;;11.18;6.93;;;;;;;6.59;100.00;95337.50;5025709;28;20356;-70
2022/04/23 04:12:01;;;;;;;17.05;10.88;;;;;;;6.65;100.00;95355.91;5021113;28;20033;-70
2022/04/23 04:14:30;;;;;;;15.45;9.70;;;;;;;6.70;100.00;95341.88;5022286;28;20319;-72
2022/04/23 04:16:55;;;;;;;16.38;9.75;;;;;;;6.78;100.00;95335.31;5021146;28;20492;-70
2022/04/23 04:19:25;;;;;;;17.23;9.25;;;;;;;6.81;100.00;95348.91;5024059;28;20044;-70
2022/04/23 04:21:50;;;;;;;14.90;9.23;;;;;;;6.81;100.00;95346.25;5023324;28;20045;-70
2022/04/23 04:24:16;;;;;;;12.93;8.82;;;;;;;6.74;100.00;95337.66;5021230;28;20044;-70
2022/04/23 04:26:48;;;;;;;14.45;9.40;;;;;;;6.77;100.00;95341.66;5023918;28;20033;-70
2022/04/23 04:29:14;;;;;;;10.50;7.18;;;;;;;6.73;100.00;95341.38;5021808;28;20072;-71
2022/04/23 04:31:49;;;;;;;11.88;8.32;;;;;;;6.73;100.00;95335.25;5023821;28;20107;-70
2022/04/23 04:34:17;;;;;;;14.30;9.23;;;;;;;6.78;100.00;95344.09;5021285;28;20045;-71
2022/04/23 04:36:44;;;;;;;13.40;8.52;;;;;;;6.84;100.00;95343.06;5021643;28;20752;-70
2022/04/23 04:39:10;;;;;;;14.93;8.73;;;;;;;6.89;100.00;95345.78;5023531;28;20037;-70
2022/04/23 04:41:37;;;;;;;17.55;10.02;;;;;;;6.96;100.00;95343.72;5021778;28;20041;-71
2022/04/23 04:44:04;;;;;;;11.63;6.63;;;;;;;7.04;100.00;95344.31;5020710;28;20033;-72
2022/04/23 04:46:29;;;;;;;13.35;8.60;;;;;;;7.16;100.00;95350.25;5022298;28;20124;-72
2022/04/23 04:48:55;;;;;;;12.40;8.50;;;;;;;7.21;100.00;95343.13;5021060;28;20130;-70
2022/04/23 04:51:20;;;;;;;11.23;7.18;;;;;;;7.29;100.00;95339.19;5020058;28;20052;-71
2022/04/23 04:53:46;;;;;;;14.07;8.93;;;;;;;7.41;100.00;95342.50;5021309;28;20396;-71
2022/04/23 04:56:11;;;;;;;12.40;7.68;;;;;;;7.48;100.00;95351.06;5021627;28;20124;-72
2022/04/23 04:58:37;;;;;;;15.45;9.20;;;;;;;7.40;100.00;95342.75;5022643;28;20468;-70
2022/04/23 05:01:03;;;;;;;13.73;9.07;;;;;;;7.44;100.00;95351.81;5052076;28;20399;-72
2022/04/23 05:03:29;;;;;;;13.77;9.65;;;;;;;7.43;100.00;95352.88;5021454;28;20551;-72
2022/04/23 05:05:55;;;;;;;13.85;9.00;;;;;;;7.55;100.00;95353.53;5019931;28;20284;-70
2022/04/23 05:08:20;;;;;;;9.77;6.82;;;;;;;7.50;100.00;95338.31;5023942;28;20484;-71
2022/04/23 05:10:46;;;;;;;11.57;6.60;;;;;;;7.53;100.00;95344.97;5023220;28;20033;-72
2022/04/23 05:13:12;;;;;;;13.82;7.45;;;;;;;7.50;100.00;95356.94;5037998;28;20400;-70
2022/04/23 05:15:39;;;;;;;11.30;7.50;;;;;;;7.47;100.00;95354.78;5022830;28;20566;-70
2022/04/23 05:18:04;;;;;;;22.67;9.75;;;;;;;7.34;100.00;95357.09;5030100;28;20448;-71
2022/04/23 05:20:30;;;;;;;15.55;9.10;;;;;;;7.31;100.00;95361.03;5024161;28;20462;-70
2022/04/23 05:22:55;;;;;;;18.85;8.98;;;;;;;7.30;100.00;95361.28;5024925;28;20041;-70
2022/04/23 05:25:21;;;;;;;14.80;10.50;;;;;;;7.30;100.00;95363.94;5022911;28;20392;-70
2022/04/23 05:27:46;;;;;;;13.45;9.40;;;;;;;7.18;100.00;95356.16;5021300;28;20057;-70
2022/04/23 05:30:12;;;;;;;12.15;7.63;;;;;;;7.15;100.00;95353.97;5021423;28;20540;-71
2022/04/23 05:32:37;;;;;;;12.93;8.05;;;;;;;7.15;100.00;95354.78;5025278;28;20473;-71
2022/04/23 05:35:04;;;;;;;17.80;9.43;;;;;;;7.20;100.00;95359.34;5022746;28;20037;-71
2022/04/23 05:37:29;;;;;;;15.85;9.30;;;;;;;7.16;100.00;95360.91;5024961;28;20029;-71
2022/04/23 05:39:54;;;;;;;18.80;9.95;;;;;;;7.20;100.00;95364.69;5025190;28;20559;-70
2022/04/23 05:42:20;;;;;;;16.83;9.63;;;;;;;7.30;100.00;95367.41;5023919;28;20471;-69
2022/04/23 05:44:45;;;;;;;11.90;7.80;;;;;;;7.34;100.00;95363.19;5024467;28;20107;-71
2022/04/23 05:47:11;;;;;;;19.83;9.73;;;;;;;7.37;100.00;95368.00;5029721;28;20045;-70
2022/04/23 05:49:39;;;;;;;13.65;9.30;;;;;;;7.44;100.00;95373.91;5023965;28;20116;-71
2022/04/23 05:52:05;;;;;;;13.40;8.57;;;;;;;7.50;100.00;95375.56;5025008;28;20072;-70
2022/04/23 05:54:31;;;;;;;11.25;7.35;;;;;;;7.47;100.00;95373.44;5028607;28;20033;-70
2022/04/23 05:56:56;;;;;;;12.85;8.18;;;;;;;7.50;100.00;95375.56;5027612;28;20061;-70
2022/04/23 05:59:25;;;;;;;10.02;6.32;;;;;;;7.50;100.00;95375.56;5027840;28;20056;-71
2022/04/23 06:01:51;;;;;;;12.65;7.55;;;;;;;7.56;100.00;95368.44;5024267;28;20072;-71
2022/04/23 06:04:16;;;;;;;13.75;7.93;;;;;;;7.59;100.00;95370.56;5025340;28;20152;-71
2022/04/23 06:06:42;;;;;;;13.60;8.60;;;;;;;7.59;100.00;95367.09;5022874;28;20069;-71
2022/04/23 06:09:07;;;;;;;14.80;9.63;;;;;;;7.57;100.00;95366.56;5023201;28;20149;-70
2022/04/23 06:11:32;;;;;;;12.88;8.85;;;;;;;7.57;100.00;95362.03;5027106;28;20689;-71
2022/04/23 06:13:58;;;;;;;14.07;8.82;;;;;;;7.55;100.00;95364.16;5025873;28;20586;-71
2022/04/23 06:16:23;;;;;;;16.10;10.15;;;;;;;7.60;100.00;95356.19;5027133;28;20045;-70
2022/04/23 06:18:49;;;;;;;12.50;8.65;;;;;;;7.70;100.00;95372.22;5024320;28;20274;-70
2022/04/23 06:21:14;;;;;;;12.52;9.15;;;;;;;7.83;100.00;95366.47;5023220;28;20048;-69
2022/04/23 06:23:40;;;;;;;15.55;8.98;;;;;;;7.87;100.00;95377.44;5026411;28;20320;-71
2022/04/23 06:26:06;;;;;;;11.82;8.32;;;;;;;7.91;100.00;95372.38;5025639;28;20071;-70
2022/04/23 06:28:32;;;;;;;14.98;8.63;;;;;;;7.99;100.00;95393.19;5025987;28;20029;-71
2022/04/23 06:30:57;;;;;;;9.13;6.50;;;;;;;8.01;100.00;95381.22;5024830;28;20175;-70
2022/04/23 06:33:23;;;;;;;10.43;6.20;;;;;;;8.07;100.00;95364.19;5025199;28;20029;-71
2022/04/23 06:35:48;;;;;;;12.18;8.27;;;;;;;8.19;100.00;95377.31;5029425;28;20037;-71
2022/04/23 06:38:14;;;;;;;8.45;5.70;;;;;;;8.20;100.00;95380.78;5021769;28;20041;-70
2022/04/23 06:40:39;;;;;;;9.43;6.30;;;;;;;8.28;100.00;95374.97;5024098;28;20029;-70
2022/04/23 06:43:04;;;;;;;10.82;7.32;;;;;;;8.43;100.00;95375.06;5022728;28;20045;-70
2022/04/23 06:45:32;;;;;;;11.60;7.55;;;;;;;8.54;100.00;95390.03;5048049;28;20029;-71
2022/04/23 06:48:05;;;;;;;10.50;7.05;;;;;;;8.58;100.00;95390.31;5023672;28;20057;-70
2022/04/23 06:50:35;;;;;;;10.60;7.35;;;;;;;8.76;100.00;95384.50;5024086;28;20038;-69
2022/04/23 06:53:01;;;;;;;10.30;6.72;;;;;;;8.93;100.00;95386.94;5024760;28;20072;-72
2022/04/23 06:55:28;;;;;;;13.27;7.78;;;;;;;9.07;100.00;95384.56;5025896;28;20044;-69
2022/04/23 06:57:54;;;;;;;11.45;7.57;;;;;;;9.24;100.00;95387.00;5029012;28;20079;-72
2022/04/23 07:00:22;;;;;;;12.75;7.00;;;;;;;9.16;100.00;95383.78;5024527;28;20033;-71
2022/04/23 07:02:50;;;;;;;12.45;7.43;;;;;;;9.19;100.00;95393.94;5023904;28;20033;-71
2022/04/23 07:05:16;;;;;;;8.65;5.80;;;;;;;9.12;100.00;95396.06;5026320;28;20045;-70
2022/04/23 07:07:59;;;;;;;8.70;6.20;;;;;;;9.01;100.00;95375.75;5022720;28;20045;-70
2022/04/23 07:10:29;;;;;;;10.40;5.85;;;;;;;9.15;100.00;95384.84;5025324;28;20041;-71
2022/04/23 07:12:55;;;;;;;10.18;5.60;;;;;;;9.02;100.00;95382.69;5026431;28;20048;-71
2022/04/23 07:15:24;;;;;;;13.15;6.13;;;;;;;9.02;100.00;95389.88;5023155;28;20388;-71
2022/04/23 07:17:50;;;;;;;11.80;6.32;;;;;;;9.15;100.00;95394.72;5025041;28;20071;-70
2022/04/23 07:20:17;;;;;;;9.60;6.47;;;;;;;9.21;100.00;95386.47;5020520;28;20118;-70
2022/04/23 07:24:03;;;;;;;10.85;5.07;;;;;;;9.01;100.00;95383.75;5023486;28;20041;-70
2022/04/23 07:25:30;;;;;;;9.38;5.53;;;;;;;9.09;100.00;95388.56;5024196;28;20073;-72
2022/04/23 07:27:56;;;;;;;9.35;5.53;;;;;;;9.25;100.00;95386.72;5025123;28;20040;-70
2022/04/23 07:30:22;;;;;;;7.75;4.72;;;;;;;9.20;100.00;95389.41;5022551;28;20041;-71
2022/04/23 07:32:47;;;;;;;7.10;4.38;;;;;;;9.13;100.00;95386.19;5021518;28;20132;-72
2022/04/23 07:37:56;;;;;;;9.00;6.22;;;;;;;9.49;100.00;95390.50;5023183;28;20132;-71
2022/04/23 07:40:22;;;;;;;8.68;5.82;;;;;;;9.55;100.00;95393.94;4991629;28;20128;-68
2022/04/23 07:42:48;;;;;;;6.93;5.00;;;;;;;9.58;100.00;95372.06;5023514;28;20045;-70
2022/04/23 07:45:13;;;;;;;7.85;5.60;;;;;;;9.46;100.00;95393.69;5021964;28;20331;-70
2022/04/23 07:47:39;;;;;;;7.55;5.15;;;;;;;9.67;100.00;95402.50;5024565;28;20041;-69
2022/04/23 07:50:05;;;;;;;9.10;6.47;;;;;;;9.67;100.00;95404.38;5030385;28;20694;-70
2022/04/23 07:52:35;;;;;;;9.38;6.28;;;;;;;9.77;100.00;95404.34;5023043;28;20399;-69
2022/04/23 07:55:01;;;;;;;8.63;5.57;;;;;;;10.11;100.00;95417.13;5024132;28;20071;-70
2022/04/23 07:57:26;;;;;;;9.65;6.70;;;;;;;10.03;100.00;95413.13;5026988;28;20555;-70
2022/04/23 07:59:52;;;;;;;9.25;6.30;;;;;;;10.05;100.00;95413.69;5023239;28;20118;-70
2022/04/23 08:02:18;;;;;;;8.00;5.45;;;;;;;10.15;100.00;95412.88;5023802;28;20053;-70
2022/04/23 08:04:44;;;;;;;8.68;5.85;;;;;;;10.28;100.00;95409.66;5025122;28;20049;-70
2022/04/23 08:07:10;;;;;;;12.10;5.75;;;;;;;10.41;100.00;95417.09;5023295;28;20038;-70
2022/04/23 08:09:39;;;;;;;10.20;6.90;;;;;;;10.56;100.00;95430.41;5024401;28;20435;-69
2022/04/23 08:12:06;;;;;;;7.05;4.85;;;;;;;10.51;100.00;95417.09;5023504;28;20041;-70
2022/04/23 08:14:33;;;;;;;9.32;4.50;;;;;;;10.25;100.00;95416.34;5023061;28;20251;-69
2022/04/23 08:16:59;;;;;;;8.63;6.05;;;;;;;10.48;100.00;95425.63;5023000;28;20442;-69
2022/04/23 08:19:25;;;;;;;8.45;5.22;;;;;;;10.71;100.00;95407.34;5021823;28;20051;-69
2022/04/23 08:21:51;;;;;;;8.82;6.03;;;;;;;10.78;100.00;95407.88;5021872;28;20044;-69
2022/04/23 08:24:16;;;;;;;9.63;6.40;;;;;;;10.93;100.00;95405.13;5023156;28;20041;-71
2022/04/23 08:26:42;;;;;;;11.23;6.90;;;;;;;11.20;100.00;95393.16;5023750;28;20244;-70
2022/04/23 08:31:52;;;;;;;10.27;6.45;;;;;;;11.06;100.00;95417.09;5024922;28;20053;-70
2022/04/23 08:34:18;;;;;;;10.40;6.60;;;;;;;11.10;100.00;95416.25;5023197;28;20034;-70
2022/04/23 08:36:43;;;;;;;12.73;7.78;;;;;;;11.44;100.00;95413.66;5023357;28;20104;-70
2022/04/23 08:39:09;;;;;;;10.50;7.05;;;;;;;11.56;100.00;95423.19;5023987;28;20068;-71
2022/04/23 08:41:35;;;;;;;10.25;6.90;;;;;;;11.26;100.00;95430.34;5000508;28;20515;-71
2022/04/23 08:44:06;;;;;;;8.88;5.53;;;;;;;10.88;100.00;95424.66;5021569;28;20485;-71
2022/04/23 08:46:37;;;;;;;16.52;7.55;;;;;;;11.28;100.00;95425.50;5025926;28;20033;-70
2022/04/23 08:49:14;;;;;;;12.77;8.02;;;;;;;11.57;100.00;95419.44;5023176;28;20030;-72
2022/04/23 08:51:42;;;;;;;11.73;8.73;;;;;;;11.82;100.00;95423.81;5020885;28;20045;-71
2022/04/23 08:54:10;;;;;;;13.63;8.70;;;;;;;11.80;100.00;95424.09;5023767;28;20037;-71
2022/04/23 08:56:37;;;;;;;13.57;8.90;;;;;;;11.70;100.00;95418.81;5022488;28;20094;-71
2022/04/23 08:59:06;;;;;;;11.55;7.10;;;;;;;11.92;100.00;95421.88;5022933;28;20041;-71
2022/04/23 09:01:32;;;;;;;12.70;7.10;;;;;;;12.20;100.00;95428.31;5022045;28;20419;-70
2022/04/23 09:03:59;;;;;;;10.88;6.80;;;;;;;12.04;100.00;95412.66;5020897;28;20354;-71
2022/04/23 09:06:33;;;;;;;13.57;7.88;;;;;;;11.67;100.00;95409.47;5027508;28;20634;-70
2022/04/23 09:09:06;;;;;;;11.10;6.55;;;;;;;11.99;100.00;95417.00;5026413;28;20075;-70
2022/04/23 09:11:35;;;;;;;12.40;8.63;;;;;;;12.48;100.00;95415.94;5027243;28;20042;-71
2022/04/23 09:14:06;;;;;;;13.48;8.00;;;;;;;12.64;100.00;95403.16;5028687;28;20037;-71
2022/04/23 09:25:10;;;;;;;14.82;8.88;;;;;;;12.81;100.00;95400.00;5026146;28;20052;-70
2022/04/23 09:27:41;;;;;;;13.90;9.25;;;;;;;13.09;100.00;95407.16;5025122;28;20447;-71
2022/04/23 09:30:08;;;;;;;15.90;10.00;;;;;;;12.87;100.00;95406.91;5028886;28;20045;-71
2022/04/23 09:32:35;;;;;;;17.20;9.52;;;;;;;12.81;100.00;95394.63;5026205;28;20128;-70
2022/04/23 09:35:04;;;;;;;15.27;9.25;;;;;;;12.86;100.00;95397.25;5027587;28;20072;-70
2022/04/23 09:38:11;;;;;;;15.68;10.30;;;;;;;12.80;100.00;95398.41;5024997;28;20026;-70
2022/04/23 09:40:21;;;;;;;12.32;8.48;;;;;;;12.85;100.00;95394.88;5010492;28;20176;-71
2022/04/23 09:43:00;;;;;;;20.38;8.48;;;;;;;12.66;100.00;95392.13;5026906;28;20037;-71
2022/04/23 09:45:29;;;;;;;11.90;8.10;;;;;;;12.77;100.00;95397.09;5027660;28;20032;-70
2022/04/23 09:48:03;;;;;;;14.63;9.43;;;;;;;13.20;100.00;95404.34;5025206;28;20064;-71
2022/04/23 09:50:39;;;;;;;14.50;8.95;;;;;;;13.19;100.00;95394.66;5026885;28;20056;-70
2022/04/23 09:53:18;;;;;;;12.45;8.40;;;;;;;13.15;100.00;95372.16;5026610;28;20164;-70
2022/04/23 09:55:45;;;;;;;13.85;8.20;;;;;;;13.22;100.00;95410.22;5026893;28;20111;-71
2022/04/23 09:58:12;;;;;;;17.33;9.98;;;;;;;13.44;100.00;95396.22;5026915;28;20128;-71
2022/04/23 10:00:41;;;;;;;9.52;6.63;;;;;;;13.02;100.00;95401.34;5024888;28;20370;-71
2022/04/23 10:03:08;;;;;;;14.60;9.40;;;;;;;13.28;100.00;95399.13;5027988;28;20307;-70
2022/04/23 10:05:40;;;;;;;17.98;9.98;;;;;;;13.72;100.00;95405.19;5024761;28;20087;-71
2022/04/23 10:08:22;;;;;;;14.23;9.30;;;;;;;14.48;100.00;95409.28;5026105;28;20030;-70
2022/04/23 10:11:11;;;;;;;11.85;8.20;;;;;;;14.20;100.00;95403.81;5026214;28;20037;-71
2022/04/23 10:13:44;;;;;;;16.90;9.35;;;;;;;13.81;100.00;95411.50;5024998;28;20408;-71
2022/04/23 10:16:10;;;;;;;18.42;9.05;;;;;;;13.63;100.00;95400.47;5028004;28;20041;-69
2022/04/23 10:18:38;;;;;;;15.85;8.80;;;;;;;13.70;100.00;95396.63;5026085;28;20163;-70
2022/04/23 10:21:08;;;;;;;14.75;9.68;;;;;;;13.53;100.00;95408.69;5024453;28;20380;-70
2022/04/23 10:24:01;;;;;;;14.13;8.43;;;;;;;13.43;100.00;95395.41;5026238;28;20061;-71
2022/04/23 10:26:41;;;;;;;12.70;8.30;;;;;;;13.52;100.00;95398.22;5026392;28;20478;-71
2022/04/23 10:29:11;;;;;;;13.65;8.13;;;;;;;13.75;100.00;95391.94;5026039;28;20045;-70
2022/04/23 10:31:38;;;;;;;13.40;9.15;;;;;;;14.90;100.00;95386.63;5025543;28;20451;-71
2022/04/23 10:34:30;;;;;;;13.20;7.85;;;;;;;14.96;100.00;95401.56;5056604;28;20073;-71
2022/04/23 10:37:24;;;;;;;13.27;8.95;;;;;;;15.07;99.57;95399.47;5025172;28;20153;-70
2022/04/23 10:39:52;;;;;;;11.73;8.00;;;;;;;14.65;97.47;95387.94;5028045;28;20045;-70
2022/04/23 10:42:20;;;;;;;12.35;6.60;;;;;;;14.13;96.82;95395.34;5002103;28;20046;-70
2022/04/23 10:44:46;;;;;;;11.93;7.63;;;;;;;14.12;100.00;95382.19;5024776;28;20094;-70
2022/04/23 10:47:12;;;;;;;13.85;7.95;;;;;;;15.37;94.76;95394.50;5025463;28;20422;-71
2022/04/23 10:49:38;;;;;;;10.95;6.40;;;;;;;14.76;93.30;95392.00;5029608;28;20033;-70
2022/04/23 10:52:04;;;;;;;12.80;8.18;;;;;;;14.53;98.12;95394.91;5022551;28;20041;-70
2022/04/23 10:54:45;;;;;;;12.73;7.82;;;;;;;15.61;92.07;95392.34;5025741;28;20452;-71
2022/04/23 10:57:13;;;;;;;14.13;8.93;;;;;;;15.75;91.40;95398.50;5025515;28;20037;-71
2022/04/23 10:59:48;;;;;;;13.10;8.30;;;;;;;14.89;97.09;95398.50;5023614;28;20041;-69
2022/04/23 11:02:20;;;;;;;12.57;8.82;;;;;;;14.76;99.92;95400.09;5023750;28;20128;-70
2022/04/23 11:13:29;;;;;;;17.20;10.30;;;;;;;14.76;99.70;95388.53;5024866;28;20044;-71
2022/04/23 11:16:16;;;;;;;21.48;12.13;;;;;;;14.45;100.00;95399.06;5022971;28;20030;-70
2022/04/23 11:18:43;;;;;;;20.67;13.00;;;;;;;13.98;100.00;95392.91;5028567;28;20320;-70
2022/04/23 11:21:11;;;;;;;20.75;12.90;;;;;;;14.61;100.00;95384.25;5020272;28;20025;-71
2022/04/23 11:23:45;;;;;;;19.13;11.48;;;;;;;16.08;93.89;95387.41;5021442;28;20612;-71
2022/04/23 11:26:15;;;;;;;19.58;12.65;;;;;;;16.44;92.14;95377.28;5025247;28;20069;-70
2022/04/23 11:28:42;;;;;;;18.40;11.15;;;;;;;17.44;87.27;95382.00;5021562;28;20060;-71
2022/04/23 11:31:09;;;;;;;18.33;12.27;;;;;;;19.03;76.70;95372.06;5021783;28;20057;-71
2022/04/23 11:33:36;;;;;;;20.95;11.75;;;;;;;18.86;74.12;95372.94;5023760;28;20535;-70
2022/04/23 11:36:02;;;;;;;16.58;11.55;;;;;;;17.75;84.25;95370.25;5022544;28;20238;-69
2022/04/23 11:38:28;;;;;;;21.90;12.48;;;;;;;16.86;89.81;95376.97;5022115;28;20070;-70
2022/04/23 11:40:54;;;;;;;20.05;11.85;;;;;;;15.92;94.67;95380.81;5008736;28;20053;-70
2022/04/23 11:43:34;;;;;;;20.90;13.18;;;;;;;18.27;87.05;95375.53;5023904;28;20132;-70
2022/04/23 11:46:06;;;;;;;21.50;12.77;;;;;;;17.19;85.88;95377.34;5028129;28;20045;-71
2022/04/23 11:48:46;;;;;;;24.20;13.68;;;;;;;15.81;92.61;95375.69;5024982;28;20071;-70
2022/04/23 11:51:12;;;;;;;21.58;14.60;;;;;;;15.17;97.67;95361.50;5026508;28;20125;-70